sensor_id;sensor_type;location;lat;lon;timestamp;temperature;humidity
23160;DHT22;11748;50.844;4.396;2023-11-19T00:00:50;13.60;99.90
23160;DHT22;11748;50.844;4.396;2023-11-19T00:03:16;13.60;99.90
23160;DHT22;11748;50.844;4.396;2023-11-19T00:05:43;13.60;99.90
23160;DHT22;11748;50.844;4.396;2023-11-19T00:08:10;13.60;99.90
23160;DHT22;11748;50.844;4.396;2023-11-19T00:10:35;13.60;99.90
23160;DHT22;11748;50.844;4.396;2023-11-19T00:13:01;13.60;99.90
23160;DHT22;11748;50.844;4.396;2023-11-19T00:15:28;13.60;99.90
23160;DHT22;11748;50.844;4.396;2023-11-19T00:17:54;13.60;99.90
23160;DHT22;11748;50.844;4.396;2023-11-19T00:20:20;13.70;99.90
23160;DHT22;11748;50.844;4.396;2023-11-19T00:22:48;13.70;99.90
23160;DHT22;11748;50.844;4.396;2023-11-19T00:25:20;13.70;99.90
23160;DHT22;11748;50.844;4.396;2023-11-19T00:27:47;13.60;99.90
23160;DHT22;11748;50.844;4.396;2023-11-19T00:30:14;13.70;99.90
23160;DHT22;11748;50.844;4.396;2023-11-19T00:32:41;13.80;99.90
23160;DHT22;11748;50.844;4.396;2023-11-19T00:35:07;13.70;99.90
23160;DHT22;11748;50.844;4.396;2023-11-19T00:37:33;13.70;99.90
23160;DHT22;11748;50.844;4.396;2023-11-19T00:39:59;13.70;99.90
23160;DHT22;11748;50.844;4.396;2023-11-19T00:42:25;13.70;99.90
23160;DHT22;11748;50.844;4.396;2023-11-19T00:44:51;13.70;99.90
23160;DHT22;11748;50.844;4.396;2023-11-19T00:47:17;13.70;99.90
23160;DHT22;11748;50.844;4.396;2023-11-19T00:49:46;13.70;99.90
23160;DHT22;11748;50.844;4.396;2023-11-19T00:52:14;13.70;99.90
23160;DHT22;11748;50.844;4.396;2023-11-19T00:54:40;13.70;99.90
23160;DHT22;11748;50.844;4.396;2023-11-19T00:57:06;13.70;99.90
23160;DHT22;11748;50.844;4.396;2023-11-19T00:59:31;13.70;99.90
23160;DHT22;11748;50.844;4.396;2023-11-19T01:01:58;13.70;99.90
23160;DHT22;11748;50.844;4.396;2023-11-19T01:04:35;13.70;99.90
23160;DHT22;11748;50.844;4.396;2023-11-19T01:07:02;13.70;99.90
23160;DHT22;11748;50.844;4.396;2023-11-19T01:09:34;13.70;99.90
23160;DHT22;11748;50.844;4.396;2023-11-19T01:12:01;13.70;99.90
23160;DHT22;11748;50.844;4.396;2023-11-19T01:14:29;13.70;99.90
23160;DHT22;11748;50.844;4.396;2023-11-19T01:16:55;13.80;99.90
23160;DHT22;11748;50.844;4.396;2023-11-19T01:19:24;13.80;99.90
23160;DHT22;11748;50.844;4.396;2023-11-19T01:21:50;13.70;99.90
23160;DHT22;11748;50.844;4.396;2023-11-19T01:24:16;13.70;99.90
23160;DHT22;11748;50.844;4.396;2023-11-19T01:26:43;13.70;99.90
23160;DHT22;11748;50.844;4.396;2023-11-19T01:29:11;13.80;99.90
23160;DHT22;11748;50.844;4.396;2023-11-19T01:31:43;13.80;99.90
23160;DHT22;11748;50.844;4.396;2023-11-19T01:34:10;13.90;99.90
23160;DHT22;11748;50.844;4.396;2023-11-19T01:36:37;13.90;99.90
23160;DHT22;11748;50.844;4.396;2023-11-19T01:39:03;13.90;99.90
23160;DHT22;11748;50.844;4.396;2023-11-19T01:41:35;13.80;99.90
23160;DHT22;11748;50.844;4.396;2023-11-19T01:44:01;13.80;99.90
23160;DHT22;11748;50.844;4.396;2023-11-19T01:46:28;13.80;99.90
23160;DHT22;11748;50.844;4.396;2023-11-19T01:48:54;13.70;99.90
23160;DHT22;11748;50.844;4.396;2023-11-19T01:51:21;13.60;99.90
23160;DHT22;11748;50.844;4.396;2023-11-19T01:53:48;13.60;99.90
23160;DHT22;11748;50.844;4.396;2023-11-19T01:56:15;13.60;99.90
23160;DHT22;11748;50.844;4.396;2023-11-19T01:58:42;13.60;99.90
23160;DHT22;11748;50.844;4.396;2023-11-19T02:01:09;13.60;99.90
23160;DHT22;11748;50.844;4.396;2023-11-19T02:03:36;13.70;99.90
23160;DHT22;11748;50.844;4.396;2023-11-19T02:06:03;13.70;99.90
23160;DHT22;11748;50.844;4.396;2023-11-19T02:08:30;13.70;99.90
23160;DHT22;11748;50.844;4.396;2023-11-19T02:10:56;13.60;99.90
23160;DHT22;11748;50.844;4.396;2023-11-19T02:13:25;13.60;99.90
23160;DHT22;11748;50.844;4.396;2023-11-19T02:15:51;13.50;99.90
23160;DHT22;11748;50.844;4.396;2023-11-19T02:18:24;13.40;99.90
23160;DHT22;11748;50.844;4.396;2023-11-19T02:20:57;13.40;99.90
23160;DHT22;11748;50.844;4.396;2023-11-19T02:23:23;13.30;99.90
23160;DHT22;11748;50.844;4.396;2023-11-19T02:28:49;13.30;99.90
23160;DHT22;11748;50.844;4.396;2023-11-19T02:31:15;13.30;99.90
23160;DHT22;11748;50.844;4.396;2023-11-19T02:33:41;13.30;99.90
23160;DHT22;11748;50.844;4.396;2023-11-19T02:36:08;13.30;99.90
23160;DHT22;11748;50.844;4.396;2023-11-19T02:38:34;13.30;99.90
23160;DHT22;11748;50.844;4.396;2023-11-19T02:41:03;13.30;99.90
23160;DHT22;11748;50.844;4.396;2023-11-19T02:43:31;13.40;99.90
23160;DHT22;11748;50.844;4.396;2023-11-19T02:46:01;13.40;99.90
23160;DHT22;11748;50.844;4.396;2023-11-19T02:48:26;13.40;99.90
23160;DHT22;11748;50.844;4.396;2023-11-19T02:50:52;13.40;99.90
23160;DHT22;11748;50.844;4.396;2023-11-19T02:53:18;13.50;99.90
23160;DHT22;11748;50.844;4.396;2023-11-19T02:55:47;13.50;99.90
23160;DHT22;11748;50.844;4.396;2023-11-19T02:58:16;13.50;99.90
23160;DHT22;11748;50.844;4.396;2023-11-19T03:00:49;13.50;99.90
23160;DHT22;11748;50.844;4.396;2023-11-19T03:03:28;13.50;99.90
23160;DHT22;11748;50.844;4.396;2023-11-19T03:05:57;13.40;99.90
23160;DHT22;11748;50.844;4.396;2023-11-19T03:08:22;13.40;99.90
23160;DHT22;11748;50.844;4.396;2023-11-19T03:10:48;13.40;99.90
23160;DHT22;11748;50.844;4.396;2023-11-19T03:13:14;13.30;99.90
23160;DHT22;11748;50.844;4.396;2023-11-19T03:15:40;13.20;99.90
23160;DHT22;11748;50.844;4.396;2023-11-19T03:18:07;13.10;99.90
23160;DHT22;11748;50.844;4.396;2023-11-19T03:20:33;13.10;99.90
23160;DHT22;11748;50.844;4.396;2023-11-19T03:22:59;13.10;99.90
23160;DHT22;11748;50.844;4.396;2023-11-19T03:25:27;13.10;99.90
23160;DHT22;11748;50.844;4.396;2023-11-19T03:27:58;13.00;99.90
23160;DHT22;11748;50.844;4.396;2023-11-19T03:30:24;13.00;99.90
23160;DHT22;11748;50.844;4.396;2023-11-19T03:32:50;13.00;99.90
23160;DHT22;11748;50.844;4.396;2023-11-19T03:35:16;13.00;99.90
23160;DHT22;11748;50.844;4.396;2023-11-19T03:37:42;12.90;99.90
23160;DHT22;11748;50.844;4.396;2023-11-19T03:40:09;12.90;99.90
23160;DHT22;11748;50.844;4.396;2023-11-19T03:42:35;12.90;99.90
23160;DHT22;11748;50.844;4.396;2023-11-19T03:45:01;12.80;99.90
23160;DHT22;11748;50.844;4.396;2023-11-19T03:47:29;12.90;99.90
23160;DHT22;11748;50.844;4.396;2023-11-19T03:49:55;12.80;99.90
23160;DHT22;11748;50.844;4.396;2023-11-19T03:52:20;12.80;99.90
23160;DHT22;11748;50.844;4.396;2023-11-19T03:54:46;12.70;99.90
23160;DHT22;11748;50.844;4.396;2023-11-19T03:57:12;12.70;99.90
23160;DHT22;11748;50.844;4.396;2023-11-19T03:59:39;12.60;99.90
23160;DHT22;11748;50.844;4.396;2023-11-19T04:02:05;12.60;99.90
23160;DHT22;11748;50.844;4.396;2023-11-19T04:04:31;12.60;99.90
23160;DHT22;11748;50.844;4.396;2023-11-19T04:06:59;12.50;99.90
23160;DHT22;11748;50.844;4.396;2023-11-19T04:09:27;12.60;99.90
23160;DHT22;11748;50.844;4.396;2023-11-19T04:11:53;12.60;99.90
23160;DHT22;11748;50.844;4.396;2023-11-19T04:14:18;12.70;99.90
23160;DHT22;11748;50.844;4.396;2023-11-19T04:16:44;12.70;99.90
23160;DHT22;11748;50.844;4.396;2023-11-19T04:19:11;12.70;99.90
23160;DHT22;11748;50.844;4.396;2023-11-19T04:21:37;12.70;99.90
23160;DHT22;11748;50.844;4.396;2023-11-19T04:24:05;12.70;99.90
23160;DHT22;11748;50.844;4.396;2023-11-19T04:26:31;12.60;99.90
23160;DHT22;11748;50.844;4.396;2023-11-19T04:28:56;12.70;99.90
23160;DHT22;11748;50.844;4.396;2023-11-19T04:31:22;12.70;99.90
23160;DHT22;11748;50.844;4.396;2023-11-19T04:33:48;12.60;99.90
23160;DHT22;11748;50.844;4.396;2023-11-19T04:36:18;12.60;99.90
23160;DHT22;11748;50.844;4.396;2023-11-19T04:38:44;12.60;99.90
23160;DHT22;11748;50.844;4.396;2023-11-19T04:41:10;12.60;99.90
23160;DHT22;11748;50.844;4.396;2023-11-19T04:43:36;12.70;99.90
23160;DHT22;11748;50.844;4.396;2023-11-19T04:46:04;12.70;99.90
23160;DHT22;11748;50.844;4.396;2023-11-19T04:48:29;12.60;99.90
23160;DHT22;11748;50.844;4.396;2023-11-19T04:50:55;12.60;99.90
23160;DHT22;11748;50.844;4.396;2023-11-19T04:53:21;12.60;99.90
23160;DHT22;11748;50.844;4.396;2023-11-19T04:55:47;12.60;99.90
23160;DHT22;11748;50.844;4.396;2023-11-19T04:58:13;12.60;99.90
23160;DHT22;11748;50.844;4.396;2023-11-19T05:00:39;12.60;99.90
23160;DHT22;11748;50.844;4.396;2023-11-19T05:03:05;12.70;99.90
23160;DHT22;11748;50.844;4.396;2023-11-19T05:05:32;12.70;99.90
23160;DHT22;11748;50.844;4.396;2023-11-19T05:07:57;12.70;99.90
23160;DHT22;11748;50.844;4.396;2023-11-19T05:10:23;12.70;99.90
23160;DHT22;11748;50.844;4.396;2023-11-19T05:12:50;12.60;99.90
23160;DHT22;11748;50.844;4.396;2023-11-19T05:15:17;12.50;99.90
23160;DHT22;11748;50.844;4.396;2023-11-19T05:17:42;12.40;99.90
23160;DHT22;11748;50.844;4.396;2023-11-19T05:20:09;12.40;99.90
23160;DHT22;11748;50.844;4.396;2023-11-19T05:22:40;12.40;99.90
23160;DHT22;11748;50.844;4.396;2023-11-19T05:25:06;12.30;99.90
23160;DHT22;11748;50.844;4.396;2023-11-19T05:27:32;12.30;99.90
23160;DHT22;11748;50.844;4.396;2023-11-19T05:29:58;12.30;99.90
23160;DHT22;11748;50.844;4.396;2023-11-19T05:32:23;12.30;99.90
23160;DHT22;11748;50.844;4.396;2023-11-19T05:34:49;12.30;99.90
23160;DHT22;11748;50.844;4.396;2023-11-19T05:37:15;12.30;99.90
23160;DHT22;11748;50.844;4.396;2023-11-19T05:39:40;12.30;99.90
23160;DHT22;11748;50.844;4.396;2023-11-19T05:42:06;12.30;99.90
23160;DHT22;11748;50.844;4.396;2023-11-19T05:44:32;12.40;99.90
23160;DHT22;11748;50.844;4.396;2023-11-19T05:46:57;12.40;99.90
23160;DHT22;11748;50.844;4.396;2023-11-19T05:49:24;12.50;99.90
23160;DHT22;11748;50.844;4.396;2023-11-19T05:51:50;12.50;99.90
23160;DHT22;11748;50.844;4.396;2023-11-19T05:54:16;12.50;99.90
23160;DHT22;11748;50.844;4.396;2023-11-19T05:56:47;12.40;99.90
23160;DHT22;11748;50.844;4.396;2023-11-19T05:59:14;12.40;99.90
23160;DHT22;11748;50.844;4.396;2023-11-19T06:01:43;12.40;99.90
23160;DHT22;11748;50.844;4.396;2023-11-19T06:04:09;12.40;99.90
23160;DHT22;11748;50.844;4.396;2023-11-19T06:06:36;12.30;99.90
23160;DHT22;11748;50.844;4.396;2023-11-19T06:09:02;12.20;99.90
23160;DHT22;11748;50.844;4.396;2023-11-19T06:11:31;12.20;99.90
23160;DHT22;11748;50.844;4.396;2023-11-19T06:13:56;12.30;99.90
23160;DHT22;11748;50.844;4.396;2023-11-19T06:16:23;12.30;99.90
23160;DHT22;11748;50.844;4.396;2023-11-19T06:18:48;12.30;99.90
23160;DHT22;11748;50.844;4.396;2023-11-19T06:21:14;12.20;99.90
23160;DHT22;11748;50.844;4.396;2023-11-19T06:23:41;12.20;99.90
23160;DHT22;11748;50.844;4.396;2023-11-19T06:26:08;12.10;99.90
23160;DHT22;11748;50.844;4.396;2023-11-19T06:28:34;12.20;99.90
23160;DHT22;11748;50.844;4.396;2023-11-19T06:31:00;12.20;99.90
23160;DHT22;11748;50.844;4.396;2023-11-19T06:33:26;12.10;99.90
23160;DHT22;11748;50.844;4.396;2023-11-19T06:35:52;12.20;99.90
23160;DHT22;11748;50.844;4.396;2023-11-19T06:38:20;12.20;99.90
23160;DHT22;11748;50.844;4.396;2023-11-19T06:40:45;12.20;99.90
23160;DHT22;11748;50.844;4.396;2023-11-19T06:43:11;12.30;99.90
23160;DHT22;11748;50.844;4.396;2023-11-19T06:45:38;12.20;99.90
23160;DHT22;11748;50.844;4.396;2023-11-19T06:48:04;12.20;99.90
23160;DHT22;11748;50.844;4.396;2023-11-19T06:50:31;12.20;99.90
23160;DHT22;11748;50.844;4.396;2023-11-19T06:52:57;12.20;99.90
23160;DHT22;11748;50.844;4.396;2023-11-19T06:55:23;12.20;99.90
23160;DHT22;11748;50.844;4.396;2023-11-19T06:57:48;12.10;99.90
23160;DHT22;11748;50.844;4.396;2023-11-19T07:00:14;12.10;99.90
23160;DHT22;11748;50.844;4.396;2023-11-19T07:02:40;12.10;99.90
23160;DHT22;11748;50.844;4.396;2023-11-19T07:05:06;12.20;99.90
23160;DHT22;11748;50.844;4.396;2023-11-19T07:07:34;12.20;99.90
23160;DHT22;11748;50.844;4.396;2023-11-19T07:10:01;12.10;99.90
23160;DHT22;11748;50.844;4.396;2023-11-19T07:12:28;12.20;99.90
23160;DHT22;11748;50.844;4.396;2023-11-19T07:14:54;12.20;99.90
23160;DHT22;11748;50.844;4.396;2023-11-19T07:17:20;12.30;99.90
23160;DHT22;11748;50.844;4.396;2023-11-19T07:19:49;12.30;99.90
23160;DHT22;11748;50.844;4.396;2023-11-19T07:22:15;12.40;99.90
23160;DHT22;11748;50.844;4.396;2023-11-19T07:24:41;12.40;99.90
23160;DHT22;11748;50.844;4.396;2023-11-19T07:27:07;12.60;99.90
23160;DHT22;11748;50.844;4.396;2023-11-19T07:29:34;12.60;99.90
23160;DHT22;11748;50.844;4.396;2023-11-19T07:32:00;12.60;99.90
23160;DHT22;11748;50.844;4.396;2023-11-19T07:34:27;12.60;99.90
23160;DHT22;11748;50.844;4.396;2023-11-19T07:36:55;12.70;99.90
23160;DHT22;11748;50.844;4.396;2023-11-19T07:39:25;12.60;99.90
23160;DHT22;11748;50.844;4.396;2023-11-19T07:41:50;12.60;99.90
23160;DHT22;11748;50.844;4.396;2023-11-19T07:44:16;12.60;99.90
23160;DHT22;11748;50.844;4.396;2023-11-19T07:46:42;12.60;99.90
23160;DHT22;11748;50.844;4.396;2023-11-19T07:49:08;12.40;99.90
23160;DHT22;11748;50.844;4.396;2023-11-19T07:51:35;12.30;99.90
23160;DHT22;11748;50.844;4.396;2023-11-19T07:54:01;12.20;99.90
23160;DHT22;11748;50.844;4.396;2023-11-19T07:56:27;12.10;99.90
23160;DHT22;11748;50.844;4.396;2023-11-19T07:58:53;12.10;99.90
23160;DHT22;11748;50.844;4.396;2023-11-19T08:01:18;12.10;99.90
23160;DHT22;11748;50.844;4.396;2023-11-19T08:03:44;12.20;99.90
23160;DHT22;11748;50.844;4.396;2023-11-19T08:06:10;12.30;99.90
23160;DHT22;11748;50.844;4.396;2023-11-19T08:08:36;12.30;99.90
23160;DHT22;11748;50.844;4.396;2023-11-19T08:11:03;12.40;99.90
23160;DHT22;11748;50.844;4.396;2023-11-19T08:13:30;12.40;99.90
23160;DHT22;11748;50.844;4.396;2023-11-19T08:15:58;12.40;99.90
23160;DHT22;11748;50.844;4.396;2023-11-19T08:18:24;12.30;99.90
23160;DHT22;11748;50.844;4.396;2023-11-19T08:20:50;12.40;99.90
23160;DHT22;11748;50.844;4.396;2023-11-19T08:23:19;12.40;99.90
23160;DHT22;11748;50.844;4.396;2023-11-19T08:25:45;12.50;99.90
23160;DHT22;11748;50.844;4.396;2023-11-19T08:28:11;12.50;99.90
23160;DHT22;11748;50.844;4.396;2023-11-19T08:30:36;12.50;99.90
23160;DHT22;11748;50.844;4.396;2023-11-19T08:33:02;12.50;99.90
23160;DHT22;11748;50.844;4.396;2023-11-19T08:35:29;12.60;99.90
23160;DHT22;11748;50.844;4.396;2023-11-19T08:37:55;12.70;99.90
23160;DHT22;11748;50.844;4.396;2023-11-19T08:40:21;12.80;99.90
23160;DHT22;11748;50.844;4.396;2023-11-19T08:42:47;12.90;99.90
23160;DHT22;11748;50.844;4.396;2023-11-19T08:45:12;12.90;99.90
23160;DHT22;11748;50.844;4.396;2023-11-19T08:47:38;13.00;99.90
23160;DHT22;11748;50.844;4.396;2023-11-19T08:50:06;12.80;99.90
23160;DHT22;11748;50.844;4.396;2023-11-19T08:52:31;12.70;99.90
23160;DHT22;11748;50.844;4.396;2023-11-19T08:54:58;12.60;99.90
23160;DHT22;11748;50.844;4.396;2023-11-19T08:57:24;12.40;99.90
23160;DHT22;11748;50.844;4.396;2023-11-19T08:59:49;12.40;99.90
23160;DHT22;11748;50.844;4.396;2023-11-19T09:02:15;12.30;99.90
23160;DHT22;11748;50.844;4.396;2023-11-19T09:04:42;12.40;99.90
23160;DHT22;11748;50.844;4.396;2023-11-19T09:07:07;12.40;99.90
23160;DHT22;11748;50.844;4.396;2023-11-19T09:09:35;12.40;99.90
23160;DHT22;11748;50.844;4.396;2023-11-19T09:12:03;12.40;99.90
23160;DHT22;11748;50.844;4.396;2023-11-19T09:14:29;12.40;99.90
23160;DHT22;11748;50.844;4.396;2023-11-19T09:16:56;12.40;99.90
23160;DHT22;11748;50.844;4.396;2023-11-19T09:19:22;12.40;99.90
23160;DHT22;11748;50.844;4.396;2023-11-19T09:21:49;12.60;99.90
23160;DHT22;11748;50.844;4.396;2023-11-19T09:24:15;12.60;99.90
23160;DHT22;11748;50.844;4.396;2023-11-19T09:26:42;12.60;99.90
23160;DHT22;11748;50.844;4.396;2023-11-19T09:29:11;12.60;99.90
23160;DHT22;11748;50.844;4.396;2023-11-19T09:31:39;12.70;99.90
23160;DHT22;11748;50.844;4.396;2023-11-19T09:34:05;12.70;99.90
23160;DHT22;11748;50.844;4.396;2023-11-19T09:36:31;12.70;99.90
23160;DHT22;11748;50.844;4.396;2023-11-19T09:38:56;12.70;99.90
23160;DHT22;11748;50.844;4.396;2023-11-19T09:41:23;12.70;99.90
23160;DHT22;11748;50.844;4.396;2023-11-19T09:43:50;12.60;99.90
23160;DHT22;11748;50.844;4.396;2023-11-19T09:46:16;12.60;99.90
23160;DHT22;11748;50.844;4.396;2023-11-19T09:48:42;12.70;99.90
23160;DHT22;11748;50.844;4.396;2023-11-19T09:51:10;12.60;99.90
23160;DHT22;11748;50.844;4.396;2023-11-19T09:53:36;12.70;99.90
23160;DHT22;11748;50.844;4.396;2023-11-19T09:56:03;12.90;99.90
23160;DHT22;11748;50.844;4.396;2023-11-19T09:58:30;13.10;99.90
23160;DHT22;11748;50.844;4.396;2023-11-19T10:00:57;13.20;99.90
23160;DHT22;11748;50.844;4.396;2023-11-19T10:03:33;13.10;99.90
23160;DHT22;11748;50.844;4.396;2023-11-19T10:06:09;13.00;99.90
23160;DHT22;11748;50.844;4.396;2023-11-19T10:08:37;13.00;99.90
23160;DHT22;11748;50.844;4.396;2023-11-19T10:11:08;13.00;99.90
23160;DHT22;11748;50.844;4.396;2023-11-19T10:13:37;13.00;99.90
23160;DHT22;11748;50.844;4.396;2023-11-19T10:16:10;13.20;99.90
23160;DHT22;11748;50.844;4.396;2023-11-19T10:18:37;13.30;99.90
23160;DHT22;11748;50.844;4.396;2023-11-19T10:21:04;13.30;99.90
23160;DHT22;11748;50.844;4.396;2023-11-19T10:23:31;13.20;99.90
23160;DHT22;11748;50.844;4.396;2023-11-19T10:26:04;13.20;99.90
23160;DHT22;11748;50.844;4.396;2023-11-19T10:28:39;13.40;99.90
23160;DHT22;11748;50.844;4.396;2023-11-19T10:31:06;13.60;99.90
23160;DHT22;11748;50.844;4.396;2023-11-19T10:33:32;13.70;99.90
23160;DHT22;11748;50.844;4.396;2023-11-19T10:35:58;13.70;99.90
23160;DHT22;11748;50.844;4.396;2023-11-19T10:38:25;13.80;99.90
23160;DHT22;11748;50.844;4.396;2023-11-19T10:40:52;14.00;99.90
23160;DHT22;11748;50.844;4.396;2023-11-19T10:43:22;14.10;99.90
23160;DHT22;11748;50.844;4.396;2023-11-19T10:45:48;13.80;99.90
23160;DHT22;11748;50.844;4.396;2023-11-19T10:48:14;13.60;99.90
23160;DHT22;11748;50.844;4.396;2023-11-19T10:50:43;13.50;99.90
23160;DHT22;11748;50.844;4.396;2023-11-19T10:53:10;13.50;99.90
23160;DHT22;11748;50.844;4.396;2023-11-19T10:55:39;13.60;99.90
23160;DHT22;11748;50.844;4.396;2023-11-19T10:58:09;13.60;99.90
23160;DHT22;11748;50.844;4.396;2023-11-19T11:00:45;13.60;99.90
23160;DHT22;11748;50.844;4.396;2023-11-19T11:03:18;13.50;99.90
23160;DHT22;11748;50.844;4.396;2023-11-19T11:05:47;13.60;99.90
23160;DHT22;11748;50.844;4.396;2023-11-19T11:08:13;13.50;99.90
23160;DHT22;11748;50.844;4.396;2023-11-19T11:10:59;13.50;99.90
23160;DHT22;11748;50.844;4.396;2023-11-19T11:13:27;13.60;99.90
23160;DHT22;11748;50.844;4.396;2023-11-19T11:15:57;13.50;99.90
23160;DHT22;11748;50.844;4.396;2023-11-19T11:18:26;13.60;99.90
23160;DHT22;11748;50.844;4.396;2023-11-19T11:21:02;13.60;99.90
23160;DHT22;11748;50.844;4.396;2023-11-19T11:27:39;13.40;99.90
23160;DHT22;11748;50.844;4.396;2023-11-19T11:30:26;13.40;99.90
23160;DHT22;11748;50.844;4.396;2023-11-19T11:33:25;13.30;99.90
23160;DHT22;11748;50.844;4.396;2023-11-19T11:36:11;13.20;99.90
23160;DHT22;11748;50.844;4.396;2023-11-19T11:38:40;13.30;99.90
23160;DHT22;11748;50.844;4.396;2023-11-19T11:41:21;13.30;99.90
23160;DHT22;11748;50.844;4.396;2023-11-19T11:43:52;13.50;99.90
23160;DHT22;11748;50.844;4.396;2023-11-19T11:49:10;13.50;99.90
23160;DHT22;11748;50.844;4.396;2023-11-19T11:54:11;13.50;99.90
23160;DHT22;11748;50.844;4.396;2023-11-19T11:57:13;13.60;99.90
23160;DHT22;11748;50.844;4.396;2023-11-19T12:02:19;14.00;99.90
23160;DHT22;11748;50.844;4.396;2023-11-19T12:04:51;14.10;99.90
23160;DHT22;11748;50.844;4.396;2023-11-19T12:07:24;14.20;99.90
23160;DHT22;11748;50.844;4.396;2023-11-19T12:10:04;14.20;99.90
23160;DHT22;11748;50.844;4.396;2023-11-19T12:12:33;14.40;99.90
23160;DHT22;11748;50.844;4.396;2023-11-19T12:15:03;14.20;99.90
23160;DHT22;11748;50.844;4.396;2023-11-19T12:17:36;14.20;99.90
23160;DHT22;11748;50.844;4.396;2023-11-19T12:20:04;14.10;99.90
23160;DHT22;11748;50.844;4.396;2023-11-19T12:22:41;13.90;99.90
23160;DHT22;11748;50.844;4.396;2023-11-19T12:25:08;13.70;99.90
23160;DHT22;11748;50.844;4.396;2023-11-19T12:27:45;13.80;99.90
23160;DHT22;11748;50.844;4.396;2023-11-19T12:30:11;14.00;99.90
23160;DHT22;11748;50.844;4.396;2023-11-19T12:32:45;14.00;99.90
23160;DHT22;11748;50.844;4.396;2023-11-19T12:35:12;14.00;99.90
23160;DHT22;11748;50.844;4.396;2023-11-19T12:37:41;14.10;99.90
23160;DHT22;11748;50.844;4.396;2023-11-19T12:40:27;13.80;99.90
23160;DHT22;11748;50.844;4.396;2023-11-19T12:42:54;13.70;99.90
23160;DHT22;11748;50.844;4.396;2023-11-19T12:45:21;13.70;99.90
23160;DHT22;11748;50.844;4.396;2023-11-19T12:47:50;13.60;99.90
23160;DHT22;11748;50.844;4.396;2023-11-19T12:50:19;13.60;99.90
23160;DHT22;11748;50.844;4.396;2023-11-19T12:52:58;13.70;99.90
23160;DHT22;11748;50.844;4.396;2023-11-19T12:55:30;13.70;99.90
23160;DHT22;11748;50.844;4.396;2023-11-19T12:57:58;13.70;99.90
23160;DHT22;11748;50.844;4.396;2023-11-19T13:00:26;13.70;99.90
23160;DHT22;11748;50.844;4.396;2023-11-19T13:02:53;13.70;99.90
23160;DHT22;11748;50.844;4.396;2023-11-19T13:05:30;13.80;99.90
23160;DHT22;11748;50.844;4.396;2023-11-19T13:08:02;13.70;99.90
23160;DHT22;11748;50.844;4.396;2023-11-19T13:10:29;13.90;99.90
23160;DHT22;11748;50.844;4.396;2023-11-19T13:13:02;14.10;99.90
23160;DHT22;11748;50.844;4.396;2023-11-19T13:15:27;14.00;99.90
23160;DHT22;11748;50.844;4.396;2023-11-19T13:17:54;14.00;99.90
23160;DHT22;11748;50.844;4.396;2023-11-19T13:20:19;14.00;99.90
23160;DHT22;11748;50.844;4.396;2023-11-19T13:23:00;13.90;99.90
23160;DHT22;11748;50.844;4.396;2023-11-19T13:25:27;13.90;99.90
23160;DHT22;11748;50.844;4.396;2023-11-19T13:27:54;13.80;99.90
23160;DHT22;11748;50.844;4.396;2023-11-19T13:30:21;13.80;99.90
23160;DHT22;11748;50.844;4.396;2023-11-19T13:32:48;13.80;99.90
23160;DHT22;11748;50.844;4.396;2023-11-19T13:35:14;13.70;99.90
23160;DHT22;11748;50.844;4.396;2023-11-19T13:37:41;13.70;99.90
23160;DHT22;11748;50.844;4.396;2023-11-19T13:40:07;13.80;99.90
23160;DHT22;11748;50.844;4.396;2023-11-19T13:42:38;13.80;99.90
23160;DHT22;11748;50.844;4.396;2023-11-19T13:45:27;13.50;99.90
23160;DHT22;11748;50.844;4.396;2023-11-19T13:47:53;13.30;99.90
23160;DHT22;11748;50.844;4.396;2023-11-19T13:50:18;13.30;99.90
23160;DHT22;11748;50.844;4.396;2023-11-19T13:52:45;13.50;99.90
23160;DHT22;11748;50.844;4.396;2023-11-19T13:55:13;13.60;99.90
23160;DHT22;11748;50.844;4.396;2023-11-19T13:57:40;13.60;99.90
23160;DHT22;11748;50.844;4.396;2023-11-19T14:00:07;13.70;99.90
23160;DHT22;11748;50.844;4.396;2023-11-19T14:02:42;13.60;99.90
23160;DHT22;11748;50.844;4.396;2023-11-19T14:05:11;13.60;99.90
23160;DHT22;11748;50.844;4.396;2023-11-19T14:07:38;13.60;99.90
23160;DHT22;11748;50.844;4.396;2023-11-19T14:10:04;13.60;99.90
23160;DHT22;11748;50.844;4.396;2023-11-19T14:12:31;13.60;99.90
23160;DHT22;11748;50.844;4.396;2023-11-19T14:14:58;13.60;99.90
23160;DHT22;11748;50.844;4.396;2023-11-19T14:17:24;13.60;99.90
23160;DHT22;11748;50.844;4.396;2023-11-19T14:19:50;13.70;99.90
23160;DHT22;11748;50.844;4.396;2023-11-19T14:22:16;13.70;99.90
23160;DHT22;11748;50.844;4.396;2023-11-19T14:24:42;13.70;99.90
23160;DHT22;11748;50.844;4.396;2023-11-19T14:27:09;13.60;99.90
23160;DHT22;11748;50.844;4.396;2023-11-19T14:29:35;13.60;99.90
23160;DHT22;11748;50.844;4.396;2023-11-19T14:32:02;13.60;99.90
23160;DHT22;11748;50.844;4.396;2023-11-19T14:34:31;13.40;99.90
23160;DHT22;11748;50.844;4.396;2023-11-19T14:36:58;13.20;99.90
23160;DHT22;11748;50.844;4.396;2023-11-19T14:39:24;13.10;99.90
23160;DHT22;11748;50.844;4.396;2023-11-19T14:41:49;13.10;99.90
23160;DHT22;11748;50.844;4.396;2023-11-19T14:44:16;13.00;99.90
23160;DHT22;11748;50.844;4.396;2023-11-19T14:46:42;12.90;99.90
23160;DHT22;11748;50.844;4.396;2023-11-19T14:49:07;13.00;99.90
23160;DHT22;11748;50.844;4.396;2023-11-19T14:51:37;12.90;99.90
23160;DHT22;11748;50.844;4.396;2023-11-19T14:54:06;12.90;99.90
23160;DHT22;11748;50.844;4.396;2023-11-19T14:56:32;12.90;99.90
23160;DHT22;11748;50.844;4.396;2023-11-19T14:58:58;13.00;99.90
23160;DHT22;11748;50.844;4.396;2023-11-19T15:01:24;12.90;99.90
23160;DHT22;11748;50.844;4.396;2023-11-19T15:03:50;12.90;99.90
23160;DHT22;11748;50.844;4.396;2023-11-19T15:06:16;12.90;99.90
23160;DHT22;11748;50.844;4.396;2023-11-19T15:08:42;12.80;99.90
23160;DHT22;11748;50.844;4.396;2023-11-19T15:11:10;12.80;99.90
23160;DHT22;11748;50.844;4.396;2023-11-19T15:13:37;12.90;99.90
23160;DHT22;11748;50.844;4.396;2023-11-19T15:16:04;13.00;99.90
23160;DHT22;11748;50.844;4.396;2023-11-19T15:18:32;12.90;99.90
23160;DHT22;11748;50.844;4.396;2023-11-19T15:20:58;12.90;99.90
23160;DHT22;11748;50.844;4.396;2023-11-19T15:23:23;13.00;99.90
23160;DHT22;11748;50.844;4.396;2023-11-19T15:25:49;13.00;99.90
23160;DHT22;11748;50.844;4.396;2023-11-19T15:28:15;13.00;99.90
23160;DHT22;11748;50.844;4.396;2023-11-19T15:30:42;13.10;99.90
23160;DHT22;11748;50.844;4.396;2023-11-19T15:33:07;13.10;99.90
23160;DHT22;11748;50.844;4.396;2023-11-19T15:35:34;13.20;99.90
23160;DHT22;11748;50.844;4.396;2023-11-19T15:38:00;13.30;99.90
23160;DHT22;11748;50.844;4.396;2023-11-19T15:40:26;13.30;99.90
23160;DHT22;11748;50.844;4.396;2023-11-19T15:42:53;13.20;99.90
23160;DHT22;11748;50.844;4.396;2023-11-19T15:45:20;13.30;99.90
23160;DHT22;11748;50.844;4.396;2023-11-19T15:47:46;13.30;99.90